Time;durP1;ratioP1;P1;durP2;ratioP2;P2;SDS_P1;SDS_P2;PMS_P1;PMS_P2;Temp;Humidity;BMP_temperature;BMP_pressure;BME280_temperature;BME280_humidity;BME280_pressure;Samples;Min_cycle;Max_cycle;Signal;HPM_P1;HPM_P2
2022/08/31 00:04:01;;;;;;;8.58;7.55;;;;;;;19.50;61.24;100260.95;1654526;85;21537;-69
2022/08/31 00:06:25;;;;;;;13.35;7.45;;;;;;;19.45;61.37;100255.46;1685294;84;21031;-68
2022/08/31 00:08:52;;;;;;;14.95;8.45;;;;;;;19.41;61.66;100265.14;1678329;84;21060;-69
2022/08/31 00:11:26;;;;;;;10.13;7.45;;;;;;;19.39;61.82;100264.58;1685490;84;21529;-68
2022/08/31 00:13:48;;;;;;;12.13;7.33;;;;;;;19.36;61.96;100261.00;1648686;85;21039;-68
2022/08/31 00:16:15;;;;;;;8.33;7.28;;;;;;;19.35;61.92;100260.73;1652366;85;21001;-67
2022/08/31 00:18:41;;;;;;;10.43;7.47;;;;;;;19.33;62.28;100265.58;1652966;85;21058;-68
2022/08/31 00:21:07;;;;;;;;;;;;;;;19.32;62.19;100267.98;1647899;85;21038;-68
2022/08/31 00:23:35;;;;;;;9.08;6.37;;;;;;;19.28;62.17;100266.30;1669254;84;20156;-68
2022/08/31 00:26:01;;;;;;;8.65;6.22;;;;;;;19.20;62.14;100266.19;1694876;84;21081;-69
2022/08/31 00:28:28;;;;;;;9.30;6.45;;;;;;;19.18;62.21;100266.16;1685273;84;21144;-69
2022/08/31 00:30:54;;;;;;;8.23;5.92;;;;;;;19.17;62.15;100263.97;1696962;84;21088;-69
2022/08/31 00:33:21;;;;;;;9.45;6.17;;;;;;;19.16;62.30;100267.75;1680587;84;21021;-70
2022/08/31 00:35:47;;;;;;;5.92;5.28;;;;;;;19.15;62.45;100266.64;1632381;86;21508;-68
2022/08/31 00:38:14;;;;;;;7.37;5.90;;;;;;;19.14;62.47;100265.02;1637831;86;21096;-68
2022/08/31 00:40:44;;;;;;;7.30;5.72;;;;;;;19.14;62.67;100269.89;1632803;86;21535;-68
2022/08/31 00:43:29;;;;;;;8.20;5.87;;;;;;;19.13;62.64;100264.19;1626372;86;21005;-68
2022/08/31 00:45:55;;;;;;;7.12;5.30;;;;;;;19.11;62.79;100262.81;1640962;85;21049;-69
2022/08/31 00:48:22;;;;;;;8.75;5.12;;;;;;;19.08;62.99;100256.03;1658932;85;21045;-67
2022/08/31 00:50:48;;;;;;;6.90;5.08;;;;;;;19.09;62.98;100258.99;1658357;85;21099;-67
2022/08/31 00:53:15;;;;;;;;;;;;;;;19.10;62.77;100261.16;1651326;85;21554;-68
2022/08/31 00:55:41;;;;;;;;;;;;;;;19.10;62.62;100263.86;1656324;85;20431;-68
2022/08/31 00:58:11;;;;;;;6.97;5.25;;;;;;;19.03;62.90;100266.74;1658676;85;20103;-69
2022/08/31 01:00:41;;;;;;;6.05;4.60;;;;;;;18.95;63.11;100271.19;1654127;84;21023;-69
2022/08/31 01:03:09;;;;;;;8.15;5.00;;;;;;;18.94;63.20;100266.86;1623686;87;21519;-68
2022/08/31 01:05:37;;;;;;;10.72;5.40;;;;;;;18.92;63.25;100265.75;1650131;85;21074;-68
2022/08/31 01:08:05;;;;;;;6.92;5.17;;;;;;;18.90;63.43;100263.83;1653963;85;21085;-69
2022/08/31 01:10:39;;;;;;;8.70;5.10;;;;;;;18.88;63.77;100263.80;1652411;85;21110;-68
2022/08/31 01:13:13;;;;;;;5.53;4.47;;;;;;;18.88;63.75;100268.66;1652449;83;21049;-68
2022/08/31 01:15:43;;;;;;;8.00;4.28;;;;;;;18.88;63.85;100272.72;1632239;87;21046;-69
2022/08/31 01:18:10;;;;;;;4.10;3.60;;;;;;;18.87;64.06;100271.06;1658039;85;21045;-68
2022/08/31 01:21:03;;;;;;;4.47;4.08;;;;;;;18.84;64.17;100273.73;1650216;85;21061;-67
2022/08/31 01:23:44;;;;;;;8.75;3.87;;;;;;;18.83;64.41;100269.38;1650800;85;21026;-69
2022/08/31 01:26:18;;;;;;;4.80;4.40;;;;;;;18.86;64.09;100265.39;1657702;85;21073;-68
2022/08/31 01:28:56;;;;;;;4.03;3.40;;;;;;;18.84;64.32;100268.33;1651015;85;21390;-68
2022/08/31 01:31:38;;;;;;;4.20;3.62;;;;;;;18.83;64.34;100275.31;1640681;85;21057;-67
2022/08/31 01:34:25;;;;;;;5.00;3.42;;;;;;;18.80;64.59;100272.59;1587529;84;21692;-67
2022/08/31 01:37:02;;;;;;;3.77;3.40;;;;;;;18.75;64.69;100272.46;1664942;84;21095;-67
2022/08/31 01:39:25;;;;;;;5.00;3.55;;;;;;;18.72;65.07;100266.73;1677633;84;21004;-67
2022/08/31 01:41:54;;;;;;;6.25;3.85;;;;;;;18.68;65.05;100269.09;1680474;84;21036;-68
2022/08/31 01:44:23;;;;;;;2.95;2.75;;;;;;;18.70;65.24;100269.66;1680916;83;20993;-68
2022/08/31 01:46:51;;;;;;;3.45;3.08;;;;;;;18.73;65.23;100265.68;1638682;85;21006;-67
2022/08/31 01:49:21;;;;;;;2.35;2.15;;;;;;;18.74;65.32;100260.55;1671774;84;21157;-66
2022/08/31 01:51:50;;;;;;;3.40;2.75;;;;;;;18.73;65.34;100264.33;1686397;84;20957;-67
2022/08/31 01:54:18;;;;;;;3.15;2.85;;;;;;;18.70;65.55;100265.61;1672394;84;20971;-67
2022/08/31 01:56:47;;;;;;;5.42;3.37;;;;;;;18.70;65.61;100262.92;1632240;86;21065;-67
2022/08/31 01:59:19;;;;;;;2.58;2.37;;;;;;;18.69;65.77;100259.95;1670641;84;21010;-68
2022/08/31 02:01:52;;;;;;;4.08;2.70;;;;;;;18.67;65.99;100264.77;1648240;85;21340;-68
2022/08/31 02:04:22;;;;;;;4.87;2.45;;;;;;;18.67;66.18;100264.23;1641557;85;20959;-67
2022/08/31 02:06:52;;;;;;;3.27;2.37;;;;;;;18.66;66.39;100266.63;1647291;85;22234;-67
2022/08/31 02:09:21;;;;;;;3.17;2.87;;;;;;;18.65;66.53;100262.85;1642331;86;21018;-67
2022/08/31 02:11:47;;;;;;;3.55;3.25;;;;;;;18.66;66.51;100261.77;1641730;85;21008;-67
2022/08/31 02:14:16;;;;;;;5.55;2.58;;;;;;;18.66;66.65;100255.83;1640954;85;21117;-67
2022/08/31 02:16:44;;;;;;;5.05;2.40;;;;;;;18.67;66.57;100249.39;1647791;85;21137;-67
2022/08/31 02:19:11;;;;;;;3.00;2.80;;;;;;;18.65;66.58;100251.52;1642185;85;21062;-66
2022/08/31 02:21:38;;;;;;;2.90;2.60;;;;;;;18.67;66.72;100244.52;1641573;85;21046;-68
2022/08/31 02:24:07;;;;;;;3.83;3.00;;;;;;;18.67;66.84;100249.92;1636862;86;21090;-68
2022/08/31 02:26:34;;;;;;;3.00;2.20;;;;;;;18.65;66.90;100239.36;1641080;86;21031;-68
2022/08/31 02:29:01;;;;;;;3.08;2.80;;;;;;;18.62;66.86;100237.14;1641278;86;21617;-68
2022/08/31 02:31:27;;;;;;;4.28;3.02;;;;;;;18.62;67.11;100246.59;1640737;86;21657;-68
2022/08/31 02:33:55;;;;;;;5.10;2.50;;;;;;;18.61;67.20;100242.78;1642690;86;21519;-67
2022/08/31 02:36:21;;;;;;;4.05;2.55;;;;;;;18.42;67.30;100223.29;1651643;86;21138;-68
2022/08/31 02:38:47;;;;;;;;;;;;;;;18.52;67.46;100251.83;1648414;86;21056;-68
2022/08/31 02:41:14;;;;;;;2.40;2.30;;;;;;;18.49;67.55;100248.25;1648155;86;20134;-67
2022/08/31 02:43:41;;;;;;;3.15;2.85;;;;;;;18.40;68.08;100253.24;1651005;86;21093;-67
2022/08/31 02:46:07;;;;;;;;;;;;;;;18.37;68.30;100252.91;1649718;86;21048;-67
2022/08/31 02:48:36;;;;;;;4.03;2.87;;;;;;;18.33;68.62;100253.91;1650789;86;20393;-67
2022/08/31 02:51:07;;;;;;;4.33;2.45;;;;;;;18.24;69.20;100253.47;1660324;86;21111;-67
2022/08/31 02:53:35;;;;;;;3.37;3.08;;;;;;;18.25;69.21;100255.63;1640434;86;21018;-68
2022/08/31 02:56:02;;;;;;;2.80;2.58;;;;;;;18.25;69.35;100255.13;1642162;84;21511;-69
2022/08/31 02:58:29;;;;;;;3.85;3.47;;;;;;;18.27;69.58;100253.52;1634002;86;21035;-68
2022/08/31 03:00:55;;;;;;;4.83;3.60;;;;;;;18.28;69.38;100253.27;1638682;86;20952;-67
2022/08/31 03:03:24;;;;;;;3.37;3.08;;;;;;;18.29;69.66;100251.42;1630290;86;21113;-68
2022/08/31 03:05:50;;;;;;;4.62;3.27;;;;;;;18.34;69.57;100248.79;1631953;86;21190;-68
2022/08/31 03:08:17;;;;;;;4.25;3.95;;;;;;;18.37;69.40;100247.51;1645579;85;21701;-68
2022/08/31 03:10:47;;;;;;;4.95;3.65;;;;;;;18.40;69.35;100241.61;1650975;85;21041;-68
2022/08/31 03:13:14;;;;;;;4.37;3.37;;;;;;;18.40;69.41;100245.14;1638031;86;21001;-68
2022/08/31 03:15:42;;;;;;;5.53;4.08;;;;;;;18.42;69.26;100248.92;1573297;89;21597;-68
2022/08/31 03:18:10;;;;;;;5.85;4.62;;;;;;;18.42;69.28;100246.23;1612360;87;21585;-68
2022/08/31 03:20:39;;;;;;;6.62;4.65;;;;;;;18.42;69.17;100244.88;1585973;89;21617;-68
2022/08/31 03:23:14;;;;;;;5.67;4.92;;;;;;;18.42;69.22;100243.53;1631454;86;21029;-68
2022/08/31 03:26:07;;;;;;;;;;;;;;;;;;;;;
2022/08/31 03:29:33;;;;;;;;;;;;;;;;;;;;;
2022/08/31 03:32:45;;;;;;;6.78;5.03;;;;;;;18.47;69.13;100250.37;1470562;96;21111;-69
2022/08/31 03:35:45;;;;;;;8.93;6.30;;;;;;;18.41;69.19;100252.70;1495937;94;21074;-69
2022/08/31 03:38:11;;;;;;;7.50;6.80;;;;;;;18.27;69.98;100248.95;1446247;97;21738;-70
2022/08/31 03:40:40;;;;;;;10.13;8.45;;;;;;;18.21;70.38;100253.13;1491986;94;21609;-68
2022/08/31 03:43:09;;;;;;;6.95;6.25;;;;;;;18.20;70.51;100248.81;1496678;94;21156;-69
2022/08/31 03:45:40;;;;;;;9.25;6.95;;;;;;;18.23;70.41;100251.02;1453443;96;21119;-69
2022/08/31 03:48:09;;;;;;;9.93;5.85;;;;;;;18.25;70.21;100251.58;1476919;96;21064;-68
2022/08/31 03:50:36;;;;;;;13.93;9.50;;;;;;;18.25;70.37;100248.38;1496381;94;21093;-69
2022/08/31 03:53:06;;;;;;;9.65;8.45;;;;;;;18.28;70.26;100249.23;1495617;94;21165;-68
2022/08/31 03:55:39;;;;;;;10.45;7.03;;;;;;;18.31;70.31;100257.39;1505492;92;21115;-68
2022/08/31 03:58:07;;;;;;;10.55;6.83;;;;;;;18.33;70.08;100257.13;1544370;92;21075;-68
2022/08/31 04:00:34;;;;;;;7.95;6.92;;;;;;;18.35;70.26;100257.73;1625154;86;21034;-68
2022/08/31 04:03:02;;;;;;;10.65;6.80;;;;;;;18.39;69.96;100254.29;1659671;84;21505;-68
2022/08/31 04:05:38;;;;;;;6.75;5.20;;;;;;;18.43;69.74;100260.02;1676925;84;21054;-68
2022/08/31 04:08:16;;;;;;;6.65;6.05;;;;;;;18.51;69.64;100257.46;1683698;84;21030;-68
2022/08/31 04:10:49;;;;;;;8.50;5.87;;;;;;;18.73;69.09;100244.89;1664210;84;21075;-68
2022/08/31 04:13:36;;;;;;;7.62;5.92;;;;;;;19.28;67.62;100261.44;1681505;85;21077;-69
2022/08/31 04:16:21;;;;;;;6.95;5.33;;;;;;;20.08;65.37;100261.95;1670145;84;21575;-70
2022/08/31 04:19:07;;;;;;;6.92;4.37;;;;;;;20.90;62.65;100249.25;1685807;83;21758;-70
2022/08/31 04:21:35;;;;;;;7.65;3.58;;;;;;;21.78;58.75;100250.08;1680825;84;20983;-70
2022/08/31 04:24:03;;;;;;;3.72;3.45;;;;;;;22.42;55.90;100250.84;1667577;83;21137;-68
2022/08/31 04:26:41;;;;;;;6.30;4.10;;;;;;;22.97;53.65;100254.66;1625257;86;21036;-72
2022/08/31 04:29:22;;;;;;;4.53;3.72;;;;;;;23.56;52.27;100252.39;1611234;85;21175;31
2022/08/31 04:31:46;;;;;;;3.90;3.20;;;;;;;24.23;49.74;100253.75;1618072;87;21010;-69
2022/08/31 04:34:13;;;;;;;4.05;2.98;;;;;;;24.61;48.39;100254.06;1672727;80;22032;-67
2022/08/31 04:36:39;;;;;;;3.33;2.72;;;;;;;24.87;47.69;100257.41;1638752;86;21049;-72
2022/08/31 04:39:07;;;;;;;2.72;2.52;;;;;;;25.12;46.83;100257.47;1664779;84;21094;-69
2022/08/31 04:41:37;;;;;;;3.33;2.77;;;;;;;25.48;45.87;100257.93;1702077;80;21129;-71
2022/08/31 04:44:05;;;;;;;3.50;2.35;;;;;;;25.91;44.51;100257.96;1675734;82;21490;-70
2022/08/31 05:02:02;;;;;;;5.92;1.75;;;;;;;26.20;43.26;100266.61;1718458;81;21069;-70
2022/08/31 05:04:55;;;;;;;1.37;1.12;;;;;;;26.08;43.65;100254.77;1726577;79;21172;-70
2022/08/31 05:07:41;;;;;;;2.12;1.47;;;;;;;26.19;43.52;100260.34;1705066;81;21093;-72
2022/08/31 05:10:46;;;;;;;;;;;;;;;;;;;;;
2022/08/31 05:13:17;;;;;;;1.37;1.27;;;;;;;26.22;43.20;100258.96;1668102;83;21561;-67
2022/08/31 05:15:59;;;;;;;;;;;;;;;;;;;;;
2022/08/31 05:18:37;;;;;;;1.70;1.22;;;;;;;26.65;42.45;100261.59;1658459;85;21014;-68
2022/08/31 05:21:28;;;;;;;2.50;1.57;;;;;;;26.85;42.18;100263.20;1614191;85;21216;-68
2022/08/31 05:24:08;;;;;;;2.33;1.80;;;;;;;27.03;41.89;100256.59;1701416;81;21040;-64
2022/08/31 05:26:43;;;;;;;1.98;1.87;;;;;;;27.20;41.43;100259.59;1694857;81;84251;-80
2022/08/31 05:29:14;;;;;;;2.37;1.40;;;;;;;27.28;40.71;100252.64;1722002;81;21090;-78
2022/08/31 05:31:44;;;;;;;5.30;2.83;;;;;;;26.97;41.06;100259.45;1725789;81;21543;-79
2022/08/31 05:34:13;;;;;;;2.77;2.10;;;;;;;26.72;42.02;100257.13;1727915;80;21025;-81
2022/08/31 05:36:43;;;;;;;2.50;1.98;;;;;;;26.71;41.98;100256.86;1723001;82;20990;-80
2022/08/31 05:39:11;;;;;;;2.30;1.20;;;;;;;26.71;42.05;100256.86;1719601;82;21508;-80
2022/08/31 05:41:41;;;;;;;3.75;2.02;;;;;;;26.64;42.54;100266.02;1707439;82;21038;-80
2022/08/31 05:44:08;;;;;;;1.40;1.10;;;;;;;26.75;42.33;100258.72;1716098;82;21061;-79
2022/08/31 05:46:37;;;;;;;3.85;2.15;;;;;;;26.89;42.19;100251.91;1675232;83;21067;-78
2022/08/31 05:49:06;;;;;;;4.40;2.45;;;;;;;26.92;41.92;100252.69;1689487;83;21001;-79
2022/08/31 05:51:34;;;;;;;2.85;2.65;;;;;;;26.92;41.80;100255.99;1683116;83;21000;-81
2022/08/31 05:54:02;;;;;;;3.52;1.82;;;;;;;26.85;42.00;100259.66;1684886;83;21014;-79
2022/08/31 05:56:28;;;;;;;2.75;1.55;;;;;;;26.91;42.22;100261.99;1711040;82;21012;-80
2022/08/31 05:58:58;;;;;;;4.87;1.67;;;;;;;27.05;42.50;100259.31;1694735;83;21034;-79
2022/08/31 06:01:29;;;;;;;5.45;1.87;;;;;;;27.30;41.67;100255.31;1711381;82;20981;-84
2022/08/31 06:04:10;;;;;;;2.75;2.40;;;;;;;27.49;41.35;100259.90;1661029;85;21072;-83
2022/08/31 06:06:39;;;;;;;1.65;1.35;;;;;;;27.70;40.68;100261.66;1660403;84;21577;-79
2022/08/31 06:09:07;;;;;;;1.90;1.42;;;;;;;27.67;41.02;100260.89;1697905;83;21531;-79
2022/08/31 06:11:34;;;;;;;1.45;1.35;;;;;;;27.71;41.04;100261.94;1716184;82;20994;-80
2022/08/31 06:14:06;;;;;;;2.50;1.47;;;;;;;27.85;40.93;100259.97;1716289;81;21065;-78
2022/08/31 06:16:35;;;;;;;2.08;1.27;;;;;;;28.02;40.13;100257.20;1729849;81;21505;-80
2022/08/31 06:19:09;;;;;;;2.90;1.30;;;;;;;27.88;40.31;100257.20;1730631;81;21505;-78
2022/08/31 06:21:41;;;;;;;2.15;1.05;;;;;;;27.67;40.76;100254.05;1685016;82;21631;-79
2022/08/31 06:24:11;;;;;;;5.12;2.83;;;;;;;27.60;40.99;100259.15;1727197;82;21001;-80
2022/08/31 06:26:38;;;;;;;3.02;0.88;;;;;;;27.57;40.92;100253.14;1727435;81;21052;-81
2022/08/31 06:29:08;;;;;;;2.98;1.87;;;;;;;27.50;41.09;100258.77;1690793;82;21046;-81
2022/08/31 06:31:46;;;;;;;0.60;0.60;;;;;;;27.47;40.99;100260.76;1733619;81;20986;-81
2022/08/31 06:34:08;;;;;;;0.70;0.55;;;;;;;27.25;41.87;100260.05;1719787;80;21128;-82
2022/08/31 06:36:52;;;;;;;5.15;1.00;;;;;;;27.22;41.79;100258.73;1697975;82;21536;-80
2022/08/31 06:39:24;;;;;;;2.10;1.02;;;;;;;27.07;42.29;100267.19;1692308;82;21020;-81
2022/08/31 06:42:55;;;;;;;2.10;0.40;;;;;;;27.16;42.39;100259.92;1710394;82;21004;-83
2022/08/31 06:45:40;;;;;;;1.65;0.60;;;;;;;27.27;41.60;100258.65;1710874;82;21372;-79
2022/08/31 06:48:26;;;;;;;3.15;1.10;;;;;;;26.95;41.98;100264.37;1631486;86;21528;-82
2022/08/31 06:50:58;;;;;;;1.72;0.95;;;;;;;26.62;42.57;100258.11;1631845;86;21078;-82
2022/08/31 06:53:25;;;;;;;4.42;0.90;;;;;;;26.50;42.74;100270.02;1663082;82;21025;-80
2022/08/31 06:55:55;;;;;;;2.15;0.33;;;;;;;26.42;43.01;100270.13;1679282;83;20997;-80
2022/08/31 06:58:40;;;;;;;5.20;0.80;;;;;;;26.45;42.95;100275.02;1695621;83;21084;-78
2022/08/31 07:01:28;;;;;;;5.35;0.98;;;;;;;26.20;43.76;100272.91;1666077;84;21042;-79
2022/08/31 07:04:03;;;;;;;1.10;0.60;;;;;;;25.94;44.33;100266.17;1666440;81;21066;-84
2022/08/31 07:06:35;;;;;;;0.85;0.65;;;;;;;25.78;44.81;100266.87;1662299;85;21026;-82
2022/08/31 07:09:05;;;;;;;3.00;0.90;;;;;;;25.54;44.74;100263.61;1663900;85;21006;-86
2022/08/31 07:11:42;;;;;;;3.92;0.35;;;;;;;25.25;45.70;100270.45;1651669;85;21533;-82
2022/08/31 07:16:52;;;;;;;1.95;0.53;;;;;;;24.87;46.88;100261.49;1708803;82;22004;-82
2022/08/31 07:19:19;;;;;;;4.30;0.55;;;;;;;24.79;46.97;100263.48;1719655;82;21013;-81
2022/08/31 07:21:53;;;;;;;0.80;0.40;;;;;;;24.72;46.86;100265.71;1721163;82;21090;-81
2022/08/31 07:24:26;;;;;;;0.47;0.47;;;;;;;24.56;47.31;100260.91;1727113;82;21021;-81
2022/08/31 07:27:03;;;;;;;1.25;0.78;;;;;;;24.52;47.28;100258.49;1712312;82;22069;-81
2022/08/31 07:29:42;;;;;;;2.27;0.82;;;;;;;24.39;47.52;100269.47;1708058;82;21058;-81
2022/08/31 07:32:14;;;;;;;2.17;0.20;;;;;;;24.24;47.83;100269.02;1706386;82;21536;-81
2022/08/31 07:34:42;;;;;;;2.55;0.40;;;;;;;24.22;48.18;100264.92;1726676;80;20938;-82
2022/08/31 07:42:54;;;;;;;2.80;0.42;;;;;;;24.26;48.37;100272.27;1709523;81;20154;-81
2022/08/31 07:45:23;;;;;;;1.30;1.00;;;;;;;24.18;48.89;100266.03;1702415;83;21818;-83
2022/08/31 07:47:54;;;;;;;1.27;0.42;;;;;;;24.15;49.19;100263.88;1687645;83;21068;-82
2022/08/31 07:50:26;;;;;;;1.47;0.50;;;;;;;24.17;49.44;100267.14;1699231;83;21108;-80
2022/08/31 07:52:56;;;;;;;0.40;0.33;;;;;;;24.22;49.38;100261.67;1704469;83;21012;-81
2022/08/31 07:55:34;;;;;;;3.83;0.40;;;;;;;24.28;49.21;100265.18;1682288;83;21148;-81
2022/08/31 07:58:03;;;;;;;0.70;0.40;;;;;;;24.37;49.34;100262.66;1701665;83;21053;-82
2022/08/31 08:00:31;;;;;;;2.17;0.47;;;;;;;24.39;49.56;100264.02;1701113;82;21122;-82
2022/08/31 08:03:05;;;;;;;4.30;1.10;;;;;;;24.39;49.47;100263.19;1701268;83;21077;-82
2022/08/31 08:05:36;;;;;;;3.17;0.40;;;;;;;24.22;49.92;100263.03;1703871;83;21076;-82
2022/08/31 08:08:21;;;;;;;0.88;0.55;;;;;;;24.02;50.37;100257.14;1643983;86;21365;-81
2022/08/31 08:10:59;;;;;;;0.35;0.20;;;;;;;23.85;51.17;100262.12;1680653;83;21022;-81
2022/08/31 08:13:39;;;;;;;0.40;0.40;;;;;;;23.74;50.34;100264.04;1695239;83;20985;-82
2022/08/31 08:16:09;;;;;;;2.52;0.30;;;;;;;23.56;51.04;100261.36;1709131;83;21121;-82
2022/08/31 08:18:49;;;;;;;1.85;0.37;;;;;;;23.45;51.35;100260.59;1696542;83;21041;-82
2022/08/31 08:21:18;;;;;;;3.58;0.40;;;;;;;23.36;51.72;100254.61;1696670;83;21061;-81
2022/08/31 08:23:45;;;;;;;0.80;0.20;;;;;;;23.29;51.96;100257.64;1700023;83;21029;-81
2022/08/31 08:26:22;;;;;;;0.78;0.35;;;;;;;23.27;52.34;100247.58;1683126;83;21086;-82
2022/08/31 08:29:06;;;;;;;1.27;0.35;;;;;;;23.32;52.23;100244.86;1712743;83;21101;-82
2022/08/31 08:31:34;;;;;;;2.25;0.68;;;;;;;23.38;52.51;100245.66;1704992;83;21590;-81
2022/08/31 08:34:00;;;;;;;3.85;0.10;;;;;;;23.47;52.37;100246.17;1693741;82;21663;-82
2022/08/31 08:36:35;;;;;;;0.17;0.17;;;;;;;23.55;51.61;100240.70;1733804;82;21068;-81
2022/08/31 08:39:09;;;;;;;1.32;0.20;;;;;;;23.67;51.18;100244.47;1673629;84;21006;-82
2022/08/31 08:41:41;;;;;;;1.00;0.20;;;;;;;23.80;50.64;100239.81;1647718;84;21002;-82
2022/08/31 08:44:13;;;;;;;4.45;0.30;;;;;;;23.87;50.25;100245.77;1627141;85;20994;-81
2022/08/31 08:46:54;;;;;;;2.17;0.47;;;;;;;23.93;50.10;100236.23;1703472;82;21395;-82
2022/08/31 08:49:40;;;;;;;0.20;0.10;;;;;;;23.98;50.01;100237.55;1717773;82;20982;-81
2022/08/31 08:52:15;;;;;;;0.98;0.30;;;;;;;23.99;50.00;100228.30;1725650;82;21025;-82
2022/08/31 08:54:46;;;;;;;3.05;0.37;;;;;;;24.01;50.06;100224.75;1727493;82;21006;-82
2022/08/31 08:57:17;;;;;;;1.00;0.50;;;;;;;24.06;50.09;100229.62;1717462;82;21036;-81
2022/08/31 08:59:47;;;;;;;0.62;0.60;;;;;;;24.13;49.69;100229.31;1724270;82;21119;-81
2022/08/31 09:02:29;;;;;;;1.00;0.60;;;;;;;24.15;49.25;100227.66;1719597;81;21084;-82
2022/08/31 09:05:34;;;;;;;0.88;0.62;;;;;;;24.08;49.62;100231.51;1698534;82;21039;-82
2022/08/31 09:08:54;;;;;;;3.75;0.40;;;;;;;24.05;49.85;100229.89;1711842;82;20985;-82
2022/08/31 09:11:36;;;;;;;1.47;0.80;;;;;;;23.93;50.51;100231.59;1541883;90;21097;-83
2022/08/31 09:14:27;;;;;;;0.75;0.45;;;;;;;23.82;51.26;100227.30;1687541;83;21194;-81
2022/08/31 09:17:06;;;;;;;1.12;0.40;;;;;;;23.76;51.69;100233.28;1712015;80;21084;-83
2022/08/31 09:19:57;;;;;;;0.95;0.57;;;;;;;23.82;51.52;100235.45;1720621;82;21489;-82
2022/08/31 09:22:01;;;;;;;1.05;0.50;;;;;;;23.80;51.30;100224.84;1682929;83;21445;-82
2022/08/31 09:24:29;;;;;;;1.35;0.70;;;;;;;23.80;51.74;100226.77;1694703;83;21954;-82
2022/08/31 09:27:16;;;;;;;1.30;0.70;;;;;;;23.86;50.93;100229.72;1676177;83;21528;-83
2022/08/31 09:29:56;;;;;;;4.33;1.05;;;;;;;23.88;50.50;100230.25;1654596;83;21053;-84
2022/08/31 09:32:33;;;;;;;0.95;0.50;;;;;;;23.86;50.10;100229.72;1650196;84;21060;-82
2022/08/31 09:35:05;;;;;;;2.33;0.80;;;;;;;23.82;50.42;100228.10;1695790;81;21082;-81
2022/08/31 09:40:38;;;;;;;3.30;0.60;;;;;;;23.92;50.04;100225.06;1665267;83;21403;-81
2022/08/31 09:43:12;;;;;;;2.15;0.30;;;;;;;24.00;50.30;100221.22;1680034;83;21024;-82
2022/08/31 09:48:55;;;;;;;2.05;0.80;;;;;;;24.45;48.79;100219.85;1788707;79;23417;-75
2022/08/31 09:51:32;;;;;;;3.25;0.80;;;;;;;24.49;47.99;100218.18;1742565;80;21017;-76
2022/08/31 09:57:01;;;;;;;1.60;0.88;;;;;;;24.31;48.77;100222.94;1716235;80;20995;-74
2022/08/31 09:59:42;;;;;;;1.80;1.55;;;;;;;24.11;49.98;100224.70;1707352;82;20979;-74
2022/08/31 10:02:21;;;;;;;4.10;2.40;;;;;;;24.00;50.09;100221.77;1687551;83;20963;-76
2022/08/31 10:04:55;;;;;;;2.00;0.65;;;;;;;23.92;50.65;100225.06;1686682;83;20963;-76
2022/08/31 10:07:41;;;;;;;1.70;0.98;;;;;;;23.88;50.54;100224.28;1698317;83;21074;-77
2022/08/31 10:10:20;;;;;;;;;;;;;;;23.93;51.29;100222.63;1694419;83;20975;-75
2022/08/31 10:13:22;;;;;;;1.37;0.53;;;;;;;23.99;51.19;100225.02;1701980;83;20116;-76
2022/08/31 10:16:13;;;;;;;1.85;0.30;;;;;;;23.95;50.74;100213.63;1714732;83;20954;-77
2022/08/31 10:18:59;;;;;;;1.05;0.30;;;;;;;23.85;51.08;100220.75;1704806;82;20969;-75
2022/08/31 10:21:41;;;;;;;1.62;0.42;;;;;;;23.92;50.84;100216.34;1714183;83;20986;-75
2022/08/31 10:24:27;;;;;;;0.72;0.20;;;;;;;23.99;50.53;100213.33;1670410;83;21142;-75
2022/08/31 10:26:55;;;;;;;0.95;0.30;;;;;;;24.07;50.36;100220.89;1628635;86;21062;-77
2022/08/31 10:29:40;;;;;;;0.57;0.20;;;;;;;24.19;49.97;100209.68;1631812;86;20995;-76
2022/08/31 10:32:30;;;;;;;0.57;0.50;;;;;;;24.29;48.67;100217.21;1629717;86;21078;-74
2022/08/31 10:35:05;;;;;;;1.05;0.30;;;;;;;24.27;48.67;100211.23;1661965;85;21596;-73
2022/08/31 10:37:59;;;;;;;3.22;0.53;;;;;;;24.22;49.39;100215.38;1683015;80;84044;31
2022/08/31 10:40:34;;;;;;;0.45;0.40;;;;;;;24.19;49.92;100221.94;1657369;84;20995;-83
2022/08/31 10:43:21;;;;;;;1.00;0.50;;;;;;;24.12;50.70;100211.34;1712552;82;21053;-82
2022/08/31 10:45:50;;;;;;;;;;;;;;;23.98;51.24;100219.33;1733521;80;20970;-92
2022/08/31 10:57:28;;;;;;;2.25;1.05;;;;;;;23.52;51.81;100210.77;1693925;82;21020;-91
2022/08/31 11:01:00;;;;;;;1.27;0.30;;;;;;;23.41;51.21;100207.82;1726231;81;21126;-88
2022/08/31 11:04:24;;;;;;;4.33;1.02;;;;;;;23.32;51.16;100204.06;1704473;82;21018;-89
2022/08/31 11:07:13;;;;;;;3.17;0.60;;;;;;;23.31;51.58;100199.70;1740085;82;21016;-90
2022/08/31 11:10:21;;;;;;;1.00;0.57;;;;;;;23.35;51.42;100199.41;1674164;81;21022;-90
2022/08/31 11:13:01;;;;;;;5.85;0.82;;;;;;;23.41;51.15;100205.10;1716969;82;21033;-90
2022/08/31 11:16:43;;;;;;;1.20;0.90;;;;;;;23.27;51.10;100180.96;1725949;81;20958;-90
2022/08/31 11:20:11;;;;;;;1.42;1.10;;;;;;;23.46;51.07;100207.81;1723782;81;21037;-90
2022/08/31 11:27:50;;;;;;;1.05;0.95;;;;;;;23.13;52.16;100210.61;1682999;83;21014;-91
2022/08/31 11:31:25;;;;;;;0.68;0.53;;;;;;;22.99;52.73;100206.27;1651540;86;21022;-89
2022/08/31 11:45:31;;;;;;;0.82;0.72;;;;;;;23.08;52.54;100194.34;1755320;79;21021;-90
2022/08/31 11:49:01;;;;;;;0.40;0.40;;;;;;;23.24;51.71;100191.83;1696137;83;20993;-90
2022/08/31 12:00:22;;;;;;;0.88;0.30;;;;;;;23.38;48.40;100185.83;1702222;80;21038;-93
2022/08/31 12:07:52;;;;;;;0.70;0.37;;;;;;;23.49;48.17;100177.34;1614617;85;21027;-93
2022/08/31 12:11:39;;;;;;;3.70;3.20;;;;;;;23.60;48.60;100175.93;1663636;83;21035;-92
2022/08/31 12:15:26;;;;;;;2.47;1.05;;;;;;;23.62;49.13;100168.30;1653251;85;21135;-92
2022/08/31 12:25:51;;;;;;;4.67;0.40;;;;;;;23.34;49.34;100173.33;1716557;81;20966;-90
2022/08/31 12:32:47;;;;;;;1.75;0.50;;;;;;;23.37;48.83;100171.39;1701607;83;21064;-90
2022/08/31 12:35:33;;;;;;;0.53;0.40;;;;;;;23.43;48.82;100172.19;1699871;80;21050;-91
2022/08/31 12:38:29;;;;;;;0.75;0.20;;;;;;;23.50;48.58;100164.55;1733565;80;21102;-90
2022/08/31 12:41:21;;;;;;;0.40;0.20;;;;;;;23.59;48.22;100168.32;1759851;80;21471;-88
2022/08/31 12:44:08;;;;;;;2.58;0.42;;;;;;;23.64;47.93;100166.95;1749874;80;21065;-90
2022/08/31 12:47:18;;;;;;;1.27;0.20;;;;;;;23.67;47.94;100171.00;1682502;84;21077;-89
2022/08/31 12:50:12;;;;;;;0.95;0.40;;;;;;;23.75;48.12;100175.04;1719001;82;21029;-90
2022/08/31 13:01:06;;;;;;;0.23;0.20;;;;;;;23.68;47.44;100179.45;1754802;80;21077;-92
2022/08/31 13:21:39;;;;;;;0.70;0.20;;;;;;;23.37;46.87;100177.39;1646938;85;21014;-92
2022/08/31 13:34:12;;;;;;;1.17;0.10;;;;;;;23.22;47.57;100174.17;1611867;87;21042;-90
2022/08/31 13:40:48;;;;;;;0.78;0.35;;;;;;;23.20;47.03;100181.80;1553782;90;21190;-90
2022/08/31 13:44:00;;;;;;;0.40;0.30;;;;;;;23.08;47.18;100192.42;1589987;89;21046;-90
2022/08/31 13:47:09;;;;;;;0.13;0.08;;;;;;;22.85;47.41;100159.83;1592529;88;21106;-89
2022/08/31 13:50:31;;;;;;;1.07;0.17;;;;;;;23.07;47.21;100194.86;1585281;88;21102;-90
2022/08/31 13:57:26;;;;;;;0.78;0.10;;;;;;;23.09;47.05;100191.87;1544967;90;21075;-90
2022/08/31 14:01:19;;;;;;;0.13;0.10;;;;;;;23.04;47.14;100199.50;1555642;80;21069;-91
2022/08/31 14:04:05;;;;;;;0.20;0.10;;;;;;;23.03;46.57;100195.66;1735413;81;21038;-89
2022/08/31 14:06:45;;;;;;;1.67;0.10;;;;;;;22.93;46.61;100201.94;1764875;80;21038;-91
2022/08/31 14:09:51;;;;;;;0.95;0.20;;;;;;;22.88;46.81;100201.38;1661888;81;21013;-89
2022/08/31 14:13:08;;;;;;;2.10;0.10;;;;;;;22.88;46.52;100199.22;1703842;81;83252;-73
2022/08/31 14:15:55;;;;;;;0.57;0.20;;;;;;;22.88;46.39;100199.22;1722473;82;21542;-73
2022/08/31 14:18:41;;;;;;;3.42;0.40;;;;;;;22.90;46.49;100197.84;1704478;82;21046;-73
2022/08/31 14:21:16;;;;;;;1.27;0.20;;;;;;;22.96;46.44;100194.58;1719497;82;21078;-75
2022/08/31 14:23:44;;;;;;;3.20;0.13;;;;;;;23.03;46.56;100185.63;1678670;84;21529;-74
2022/08/31 14:26:18;;;;;;;1.17;0.10;;;;;;;23.13;45.81;100184.78;1719053;82;21063;-72
2022/08/31 14:28:52;;;;;;;0.70;0.10;;;;;;;23.19;45.21;100179.63;1707231;82;21010;-74
2022/08/31 14:31:39;;;;;;;0.28;0.13;;;;;;;23.23;44.64;100177.98;1716703;82;21065;-72